Time;durP1;ratioP1;P1;durP2;ratioP2;P2;SDS_P1;SDS_P2;PMS_P1;PMS_P2;Temp;Humidity;BMP_temperature;BMP_pressure;BME280_temperature;BME280_humidity;BME280_pressure;Samples;Min_cycle;Max_cycle;Signal;HPM_P1;HPM_P2
2021/06/01 00:01:57;;;;;;;2.42;0.88;;;11.90;96.40;;;;;;5031831;28;20378;-72
2021/06/01 00:04:22;;;;;;;2.00;0.90;;;11.90;96.40;;;;;;5032091;28;20107;-71
2021/06/01 00:06:48;;;;;;;1.70;0.95;;;11.90;96.10;;;;;;5032022;28;20021;-72
2021/06/01 00:09:20;;;;;;;2.15;0.82;;;11.90;96.70;;;;;;5031874;28;20018;-71
2021/06/01 00:11:47;;;;;;;1.38;0.80;;;11.90;96.40;;;;;;5031634;28;20029;-72
2021/06/01 00:14:13;;;;;;;3.72;0.80;;;11.90;96.60;;;;;;5031763;28;20033;-72
2021/06/01 00:16:40;;;;;;;1.23;0.85;;;11.90;96.70;;;;;;5031460;28;20033;-71
2021/06/01 00:19:07;;;;;;;2.47;0.70;;;11.90;96.90;;;;;;5031673;28;20500;-71
2021/06/01 00:21:35;;;;;;;3.83;0.77;;;11.80;97.00;;;;;;5031526;28;20582;-71
2021/06/01 00:24:01;;;;;;;2.97;0.70;;;11.80;97.30;;;;;;5031514;28;20033;-71
2021/06/01 00:26:27;;;;;;;1.65;0.90;;;11.70;97.80;;;;;;5031499;28;20072;-71
2021/06/01 00:28:53;;;;;;;3.40;0.85;;;11.70;97.90;;;;;;5031777;28;20057;-71
2021/06/01 00:31:19;;;;;;;1.55;0.70;;;11.70;97.80;;;;;;5031841;28;20381;-71
2021/06/01 00:33:44;;;;;;;3.85;0.70;;;11.70;97.80;;;;;;5035134;28;20026;-71
2021/06/01 00:36:10;;;;;;;1.65;1.00;;;11.70;97.90;;;;;;5035236;28;20033;-69
2021/06/01 00:38:36;;;;;;;1.63;0.80;;;11.70;97.80;;;;;;5035078;28;20025;-71
2021/06/01 00:41:04;;;;;;;2.20;0.90;;;11.70;98.20;;;;;;5035140;28;20068;-71
2021/06/01 00:43:29;;;;;;;1.85;0.63;;;11.60;98.60;;;;;;5034979;28;20044;-70
2021/06/01 00:45:55;;;;;;;1.58;0.70;;;11.60;99.00;;;;;;5034992;28;20465;-70
2021/06/01 00:48:21;;;;;;;0.90;0.70;;;11.60;99.40;;;;;;5034994;28;20030;-70
2021/06/01 00:50:47;;;;;;;2.67;0.77;;;11.60;99.70;;;;;;5035204;28;20030;-70
2021/06/01 00:53:13;;;;;;;1.25;0.82;;;11.60;99.80;;;;;;5035196;28;20027;-70
2021/06/01 00:55:38;;;;;;;1.25;0.77;;;11.60;99.80;;;;;;5035092;28;20385;-70
2021/06/01 00:58:06;;;;;;;0.65;0.65;;;11.50;99.90;;;;;;5034755;28;20040;-70
2021/06/01 01:03:12;;;;;;;2.15;0.80;;;11.50;99.90;;;;;;5035133;28;20041;-70
2021/06/01 01:05:41;;;;;;;1.60;0.80;;;11.60;99.90;;;;;;5034486;28;20033;-70
2021/06/01 01:10:54;;;;;;;1.38;0.80;;;11.50;99.90;;;;;;5034904;28;20111;-70
2021/06/01 01:13:20;;;;;;;0.82;0.82;;;11.50;99.90;;;;;;5034942;28;20497;-70
2021/06/01 01:15:50;;;;;;;1.10;0.70;;;11.50;99.90;;;;;;5034667;28;20063;-70
2021/06/01 01:18:20;;;;;;;1.08;0.80;;;11.50;99.90;;;;;;5034484;28;20526;-70
2021/06/01 01:20:57;;;;;;;;;;;11.50;99.90;;;;;;5035135;28;20112;-70
2021/06/01 01:23:26;;;;;;;3.30;0.80;;;11.50;99.90;;;;;;5034420;28;19909;-70
2021/06/01 01:26:17;;;;;;;2.55;0.70;;;11.40;99.90;;;;;;5034141;28;20496;-70
2021/06/01 01:29:15;;;;;;;2.35;0.90;;;11.40;99.90;;;;;;5034491;28;20030;-70
2021/06/01 01:31:56;;;;;;;0.82;0.73;;;11.40;99.90;;;;;;5015486;28;20042;-70
2021/06/01 01:34:24;;;;;;;0.77;0.70;;;11.40;99.90;;;;;;5034515;28;20484;-70
2021/06/01 01:36:51;;;;;;;5.53;0.85;;;11.30;99.90;;;;;;5034045;28;20087;-70
2021/06/01 01:39:17;;;;;;;3.20;0.80;;;11.30;99.90;;;;;;5034487;28;20057;-70
2021/06/01 01:41:44;;;;;;;2.80;0.50;;;11.30;99.90;;;;;;5034306;28;20030;-70
2021/06/01 01:44:13;;;;;;;1.25;0.60;;;11.30;99.90;;;;;;5033691;28;20036;-70
2021/06/01 01:49:12;;;;;;;1.17;0.80;;;11.30;99.90;;;;;;5034232;28;20492;-70
2021/06/01 01:51:42;;;;;;;1.10;0.77;;;11.20;99.90;;;;;;5033956;28;20044;-70
2021/06/01 01:54:10;;;;;;;;;;;11.20;99.90;;;;;;5034283;28;20029;-68
2021/06/01 01:56:40;;;;;;;6.32;1.00;;;11.10;99.90;;;;;;5033771;28;20364;-70
2021/06/01 01:59:09;;;;;;;3.73;0.87;;;11.10;99.90;;;;;;5033736;28;20025;-70
2021/06/01 02:01:36;;;;;;;2.75;0.90;;;11.20;99.90;;;;;;5033637;28;20620;-70
2021/06/01 02:04:03;;;;;;;0.75;0.73;;;11.20;99.90;;;;;;5033848;28;20033;-70
2021/06/01 02:06:30;;;;;;;1.50;0.90;;;11.30;99.90;;;;;;5033602;28;20044;-70
2021/06/01 02:08:56;;;;;;;2.50;1.00;;;11.30;99.90;;;;;;5033599;28;20056;-70
2021/06/01 02:11:22;;;;;;;2.15;1.10;;;11.40;99.60;;;;;;5033761;28;20029;-70
2021/06/01 02:13:53;;;;;;;4.32;1.20;;;11.50;98.70;;;;;;5033195;28;20392;-70
2021/06/01 02:16:20;;;;;;;2.33;1.13;;;11.60;97.90;;;;;;5033508;28;20065;-70
2021/06/01 02:18:47;;;;;;;4.35;1.00;;;11.70;97.60;;;;;;5033424;28;20017;-70
2021/06/01 02:24:49;;;;;;;4.38;0.88;;;11.80;99.90;;;;;;5032673;28;20140;-70
2021/06/01 02:27:24;;;;;;;2.28;0.98;;;11.70;99.90;;;;;;5015692;28;20087;-70
2021/06/01 02:30:02;;;;;;;3.72;0.93;;;11.70;99.90;;;;;;5033348;28;20513;-70
2021/06/01 02:32:41;;;;;;;1.33;0.80;;;11.70;99.90;;;;;;5033115;28;20036;-70
2021/06/01 02:35:13;;;;;;;3.83;1.30;;;11.70;99.90;;;;;;5033064;28;20476;-70
2021/06/01 02:37:42;;;;;;;1.42;0.75;;;11.70;99.90;;;;;;5032631;28;20093;-69
2021/06/01 02:40:09;;;;;;;1.27;0.88;;;11.70;99.90;;;;;;5032948;28;20500;-70
2021/06/01 02:42:37;;;;;;;2.20;1.00;;;11.70;99.90;;;;;;5032921;28;20021;-69
2021/06/01 02:45:03;;;;;;;1.00;0.80;;;11.80;99.90;;;;;;5032745;28;20030;-69
2021/06/01 02:47:29;;;;;;;1.77;1.00;;;12.00;99.90;;;;;;5032803;28;20029;-69
2021/06/01 02:49:56;;;;;;;1.35;0.93;;;12.10;99.90;;;;;;5032642;28;20713;-69
2021/06/01 02:52:22;;;;;;;2.28;0.85;;;12.30;96.20;;;;;;5032778;28;20056;-69
2021/06/01 02:54:48;;;;;;;2.85;0.95;;;12.40;94.90;;;;;;5032037;28;20053;-69
2021/06/01 02:57:15;;;;;;;1.63;0.90;;;12.60;94.20;;;;;;5032568;28;20061;-69
2021/06/01 02:59:42;;;;;;;1.83;0.95;;;12.70;92.80;;;;;;5032833;28;20026;-70
2021/06/01 03:02:07;;;;;;;2.55;1.15;;;12.80;90.70;;;;;;5032732;28;20021;-74
2021/06/01 03:04:33;;;;;;;2.67;0.90;;;13.00;89.90;;;;;;5032573;28;20060;-69
2021/06/01 03:07:00;;;;;;;2.65;0.85;;;13.00;86.00;;;;;;5032704;28;20033;-68
2021/06/01 03:09:26;;;;;;;3.28;0.82;;;13.00;85.00;;;;;;5032759;28;20029;-72
2021/06/01 03:11:53;;;;;;;1.85;0.90;;;13.10;83.80;;;;;;5032652;28;20068;-72
2021/06/01 03:14:20;;;;;;;1.90;0.90;;;13.30;82.90;;;;;;5032431;28;20025;-72
2021/06/01 03:16:46;;;;;;;1.75;0.90;;;13.50;80.50;;;;;;5032393;28;20053;-72
2021/06/01 03:19:11;;;;;;;7.93;1.33;;;13.80;79.80;;;;;;5032437;28;20072;-72
2021/06/01 03:21:38;;;;;;;6.57;0.88;;;14.10;77.80;;;;;;5032240;28;20021;-72
2021/06/01 03:24:05;;;;;;;2.33;0.90;;;14.40;76.00;;;;;;5032219;28;20033;-72
2021/06/01 03:26:31;;;;;;;0.98;0.65;;;14.50;74.50;;;;;;5032214;28;20087;-72
2021/06/01 03:28:56;;;;;;;3.80;0.93;;;14.70;73.10;;;;;;5031926;28;20021;-72
2021/06/01 03:31:22;;;;;;;2.50;0.70;;;14.80;71.50;;;;;;5032455;28;20120;-72
2021/06/01 03:33:51;;;;;;;1.27;0.63;;;14.80;70.90;;;;;;5031831;28;20021;-72
2021/06/01 03:36:17;;;;;;;1.85;1.00;;;14.90;70.70;;;;;;5031804;28;20424;-72
2021/06/01 03:38:43;;;;;;;1.77;0.80;;;15.00;70.20;;;;;;5031914;28;20021;-70
2021/06/01 03:41:08;;;;;;;2.53;0.82;;;15.20;69.40;;;;;;5032070;28;20033;-70
2021/06/01 03:43:34;;;;;;;2.95;0.77;;;15.40;68.50;;;;;;5032063;28;20025;-70
2021/06/01 03:46:00;;;;;;;2.70;0.70;;;15.50;67.70;;;;;;5031788;28;20068;-71
2021/06/01 03:48:26;;;;;;;2.05;1.00;;;15.70;67.40;;;;;;5014208;28;20023;-71
2021/06/01 03:50:51;;;;;;;1.83;0.88;;;15.90;66.70;;;;;;5031840;28;20068;-71
2021/06/01 03:53:17;;;;;;;2.08;1.02;;;16.10;66.00;;;;;;5032060;28;20025;-72
2021/06/01 03:55:43;;;;;;;1.65;0.90;;;16.30;66.10;;;;;;5031754;28;20028;-72
2021/06/01 03:58:08;;;;;;;2.95;0.70;;;16.50;65.30;;;;;;5032041;28;20128;-72
2021/06/01 04:00:35;;;;;;;1.35;0.63;;;16.70;63.30;;;;;;5031759;28;20063;-72
2021/06/01 04:03:01;;;;;;;4.40;0.68;;;17.00;62.90;;;;;;5031863;28;20053;-72
2021/06/01 04:05:27;;;;;;;3.25;0.80;;;17.10;61.30;;;;;;5032433;28;20069;-71
2021/06/01 04:07:53;;;;;;;2.28;0.85;;;17.30;60.30;;;;;;5035580;28;20037;-71
2021/06/01 04:10:19;;;;;;;3.85;0.77;;;17.70;60.40;;;;;;5035971;28;20075;-71
2021/06/01 04:12:45;;;;;;;2.70;0.70;;;18.00;59.20;;;;;;5035553;28;20361;-72
2021/06/01 04:15:11;;;;;;;1.20;0.65;;;18.20;58.70;;;;;;5035935;28;20027;-74
2021/06/01 04:17:37;;;;;;;3.25;0.80;;;18.30;57.70;;;;;;5035507;28;20485;-72
2021/06/01 04:20:05;;;;;;;3.67;0.80;;;18.50;58.20;;;;;;5035810;28;20083;-72
2021/06/01 04:22:30;;;;;;;1.88;0.68;;;18.80;57.70;;;;;;5035175;28;20489;-71
2021/06/01 04:24:56;;;;;;;1.02;0.50;;;19.10;56.30;;;;;;5035612;28;20077;-71
2021/06/01 04:27:22;;;;;;;1.38;0.60;;;19.40;56.40;;;;;;5035809;28;20389;-71
2021/06/01 04:29:47;;;;;;;1.08;0.50;;;19.60;55.20;;;;;;5035283;28;20075;-72
2021/06/01 04:32:13;;;;;;;3.33;0.60;;;19.90;54.90;;;;;;5035562;28;20040;-70
2021/06/01 04:34:39;;;;;;;4.80;0.60;;;20.00;54.00;;;;;;5017593;28;20029;-67
2021/06/01 04:37:04;;;;;;;2.13;0.60;;;19.90;54.00;;;;;;5035024;28;20509;-67
2021/06/01 04:39:30;;;;;;;2.53;0.63;;;20.00;53.80;;;;;;5035226;28;20432;-69
2021/06/01 04:41:57;;;;;;;1.80;0.70;;;20.20;52.80;;;;;;5035034;28;20113;-68
2021/06/01 04:44:22;;;;;;;1.52;0.60;;;20.50;52.70;;;;;;5035206;28;20036;-69
2021/06/01 04:46:50;;;;;;;2.95;0.80;;;20.80;51.80;;;;;;5034555;28;20030;-67
2021/06/01 04:49:15;;;;;;;1.02;0.50;;;20.90;51.20;;;;;;5034827;28;20148;-72
2021/06/01 04:51:41;;;;;;;3.25;0.60;;;21.10;51.20;;;;;;5035097;28;20034;-73
2021/06/01 04:54:07;;;;;;;2.17;0.70;;;21.20;51.30;;;;;;5035203;28;20021;-72
2021/06/01 04:56:32;;;;;;;2.03;0.70;;;21.10;50.50;;;;;;5034832;28;20060;-71
2021/06/01 04:58:58;;;;;;;3.50;0.70;;;21.20;51.20;;;;;;5034736;28;20173;-71
2021/06/01 05:01:25;;;;;;;3.70;0.50;;;21.40;50.20;;;;;;5034725;28;20030;-71
2021/06/01 05:03:51;;;;;;;1.23;0.52;;;21.70;49.90;;;;;;5034435;28;20056;-71
2021/06/01 05:06:17;;;;;;;2.70;0.60;;;22.00;49.00;;;;;;5035519;28;20504;-69
2021/06/01 05:08:43;;;;;;;1.00;0.40;;;22.20;48.50;;;;;;5034449;28;20025;-69
2021/06/01 05:11:10;;;;;;;1.88;0.63;;;22.40;48.10;;;;;;5034897;28;20108;-73
2021/06/01 05:13:36;;;;;;;2.70;0.50;;;22.50;47.50;;;;;;5034669;28;20025;-70
2021/06/01 05:16:02;;;;;;;2.65;0.45;;;22.50;47.10;;;;;;5034757;28;20389;-70
2021/06/01 05:18:28;;;;;;;2.58;0.80;;;22.30;46.70;;;;;;5033862;28;20104;-69
2021/06/01 05:20:54;;;;;;;5.72;0.60;;;22.40;46.80;;;;;;5034288;28;20441;-70
2021/06/01 05:23:19;;;;;;;8.80;1.00;;;22.30;47.10;;;;;;5021558;28;20440;-69
2021/06/01 05:25:45;;;;;;;6.18;0.60;;;22.40;47.10;;;;;;5013579;28;20485;-69
2021/06/01 05:28:12;;;;;;;4.07;0.60;;;22.50;46.60;;;;;;5014592;28;20049;-69
2021/06/01 05:30:49;;;;;;;2.05;0.70;;;22.60;47.10;;;;;;5014754;28;20026;-69
2021/06/01 05:33:35;;;;;;;3.85;0.60;;;22.80;47.10;;;;;;5014518;28;20022;-70
2021/06/01 05:36:02;;;;;;;3.65;1.35;;;23.00;46.40;;;;;;5014089;28;20050;-67
2021/06/01 05:38:30;;;;;;;2.78;0.68;;;22.90;45.60;;;;;;5014303;28;20108;-67
2021/06/01 05:40:57;;;;;;;7.03;0.77;;;22.60;46.10;;;;;;5014162;28;20026;-70
2021/06/01 05:43:23;;;;;;;3.95;0.57;;;22.50;46.20;;;;;;5014243;28;20030;-68
2021/06/01 05:45:50;;;;;;;4.43;0.70;;;22.50;46.40;;;;;;5014054;28;20061;-67
2021/06/01 05:48:16;;;;;;;96.28;5.40;;;22.60;46.70;;;;;;5014137;28;20426;-67
2021/06/01 05:50:43;;;;;;;3.42;0.70;;;22.90;46.20;;;;;;5014062;28;20040;-67
2021/06/01 05:53:09;;;;;;;2.28;0.75;;;22.80;45.40;;;;;;4990281;28;20092;-67
2021/06/01 05:55:36;;;;;;;3.80;1.05;;;22.80;45.60;;;;;;5014128;28;20072;-67
2021/06/01 05:58:04;;;;;;;0.90;0.40;;;23.10;46.60;;;;;;5010908;28;20054;-67
2021/06/01 06:00:31;;;;;;;2.13;0.82;;;23.30;44.70;;;;;;5013994;28;20022;-67
2021/06/01 06:02:58;;;;;;;1.85;0.60;;;23.20;45.40;;;;;;5014111;28;20034;-70
2021/06/01 06:05:25;;;;;;;4.72;1.02;;;23.10;45.40;;;;;;5013791;28;20073;-70
2021/06/01 06:07:51;;;;;;;4.93;0.65;;;23.00;45.10;;;;;;5002304;28;20060;-70
2021/06/01 06:10:17;;;;;;;3.13;0.70;;;22.90;45.20;;;;;;5000222;28;20475;-71
2021/06/01 06:12:43;;;;;;;1.13;0.50;;;23.20;44.80;;;;;;4994411;28;20026;-71
2021/06/01 06:15:15;;;;;;;5.78;0.80;;;23.50;43.30;;;;;;4993899;28;20363;-71
2021/06/01 06:17:52;;;;;;;5.47;0.60;;;23.60;42.40;;;;;;4994232;28;20045;-70
2021/06/01 06:20:18;;;;;;;2.20;0.63;;;23.60;42.50;;;;;;4976558;28;20478;-70
2021/06/01 06:22:45;;;;;;;2.22;0.55;;;23.70;43.20;;;;;;4993921;28;20474;-69
2021/06/01 06:25:14;;;;;;;44.78;2.22;;;24.00;43.10;;;;;;4993958;28;20042;-70
2021/06/01 06:27:40;;;;;;;4.53;0.57;;;24.10;42.30;;;;;;4993903;28;20513;-68
2021/06/01 06:30:11;;;;;;;1.20;0.55;;;24.00;42.40;;;;;;4992656;28;20034;-69
2021/06/01 06:32:37;;;;;;;1.05;0.40;;;24.00;42.00;;;;;;4993545;28;20429;-70
2021/06/01 06:35:04;;;;;;;1.52;0.45;;;23.80;42.80;;;;;;4993618;28;20058;-70
2021/06/01 06:37:30;;;;;;;1.23;0.60;;;23.70;42.60;;;;;;4993383;28;20051;-70
2021/06/01 06:39:55;;;;;;;4.45;0.82;;;23.30;43.00;;;;;;4993716;28;20022;-70
2021/06/01 06:42:21;;;;;;;1.30;0.40;;;23.40;43.40;;;;;;4993880;28;20034;-70
2021/06/01 06:44:50;;;;;;;1.33;0.40;;;23.60;43.50;;;;;;4993353;28;20034;-70
2021/06/01 06:47:27;;;;;;;3.60;0.60;;;23.70;43.20;;;;;;4993572;28;20026;-74
2021/06/01 06:49:55;;;;;;;1.70;0.50;;;23.70;44.00;;;;;;4993887;28;20041;-72
2021/06/01 06:52:22;;;;;;;2.70;0.70;;;23.70;44.50;;;;;;4993231;28;20026;-69
2021/06/01 06:54:48;;;;;;;2.30;0.60;;;23.70;42.80;;;;;;4992962;28;20115;-69
2021/06/01 06:57:14;;;;;;;97.00;5.05;;;23.40;43.40;;;;;;4993356;28;20054;-70
2021/06/01 06:59:40;;;;;;;4.18;0.75;;;23.20;43.50;;;;;;4993320;28;20057;-71
2021/06/01 07:02:07;;;;;;;0.65;0.40;;;23.00;44.00;;;;;;4992986;28;20023;-71
2021/06/01 07:04:42;;;;;;;3.15;0.50;;;23.10;44.40;;;;;;5089289;27;20385;-72
2021/06/01 07:07:08;;;;;;;1.38;0.50;;;23.20;44.00;;;;;;5083422;28;20044;-72
2021/06/01 07:09:37;;;;;;;1.92;0.63;;;23.30;44.70;;;;;;5080986;28;20016;-71
2021/06/01 07:12:04;;;;;;;4.88;0.77;;;23.40;43.70;;;;;;5088923;28;20029;-71
2021/06/01 07:15:11;;;;;;;1.25;0.60;;;23.50;42.90;;;;;;5089510;28;20029;-71
2021/06/01 07:17:38;;;;;;;1.48;0.50;;;23.40;42.90;;;;;;5083491;28;20032;-71
2021/06/01 07:20:06;;;;;;;1.65;0.63;;;23.30;42.10;;;;;;5089654;28;20093;-71
2021/06/01 07:22:32;;;;;;;0.68;0.40;;;23.20;42.80;;;;;;5089069;28;20487;-72
2021/06/01 07:24:58;;;;;;;2.28;0.68;;;23.10;42.30;;;;;;5088890;28;20070;-71
2021/06/01 07:27:24;;;;;;;2.03;0.60;;;23.10;42.70;;;;;;5089404;28;20379;-71
2021/06/01 07:29:50;;;;;;;2.75;0.60;;;23.10;43.20;;;;;;5089140;28;20529;-71
2021/06/01 07:32:15;;;;;;;0.90;0.40;;;23.10;43.40;;;;;;5089334;28;20047;-71
2021/06/01 07:34:41;;;;;;;0.65;0.32;;;23.00;43.90;;;;;;5088899;28;20035;-71
2021/06/01 07:37:07;;;;;;;1.55;0.60;;;23.00;43.10;;;;;;5088991;28;20031;-71
2021/06/01 07:39:32;;;;;;;2.50;0.60;;;22.90;42.90;;;;;;5089068;28;20029;-71
2021/06/01 07:41:58;;;;;;;4.03;0.60;;;22.90;43.30;;;;;;5087429;28;20020;-71
2021/06/01 07:44:25;;;;;;;5.07;0.90;;;22.90;44.00;;;;;;5088846;28;20036;-71
2021/06/01 07:46:51;;;;;;;3.00;0.77;;;22.90;43.20;;;;;;5088567;28;20077;-71
2021/06/01 07:49:17;;;;;;;3.65;0.63;;;22.80;45.10;;;;;;5088549;28;20032;-71
2021/06/01 07:51:43;;;;;;;1.83;0.63;;;22.90;45.40;;;;;;5088901;28;20043;-71
2021/06/01 07:54:09;;;;;;;29.17;2.05;;;23.00;44.20;;;;;;5088337;28;20039;-71
2021/06/01 07:56:35;;;;;;;2.97;0.70;;;22.90;44.20;;;;;;5088444;28;20021;-71
2021/06/01 07:59:01;;;;;;;3.38;0.60;;;22.80;44.70;;;;;;5088212;28;20036;-71
2021/06/01 08:01:27;;;;;;;1.55;0.52;;;22.60;44.30;;;;;;5088636;28;20082;-71
2021/06/01 08:03:52;;;;;;;4.95;0.60;;;22.50;44.00;;;;;;5087835;28;20083;-71
2021/06/01 08:06:18;;;;;;;4.97;1.05;;;22.50;44.70;;;;;;5088363;28;20020;-71
2021/06/01 08:08:44;;;;;;;3.28;0.75;;;22.50;45.00;;;;;;5088489;28;20111;-71
2021/06/01 08:11:10;;;;;;;1.67;0.57;;;22.40;44.30;;;;;;5088422;28;20438;-71
2021/06/01 08:13:36;;;;;;;2.70;0.90;;;22.50;44.80;;;;;;5088140;28;20502;-70
2021/06/01 08:16:03;;;;;;;4.60;0.80;;;22.40;44.20;;;;;;5074427;28;20050;-70
2021/06/01 08:18:38;;;;;;;6.20;0.80;;;22.40;44.10;;;;;;5074750;28;20108;-70
2021/06/01 08:21:10;;;;;;;2.90;0.55;;;22.40;44.70;;;;;;5074463;28;20031;-70
2021/06/01 08:23:37;;;;;;;5.00;0.80;;;22.30;45.30;;;;;;5074410;28;20363;-70
2021/06/01 08:26:03;;;;;;;22.35;1.40;;;22.30;45.30;;;;;;5074503;28;20029;-70
2021/06/01 08:28:29;;;;;;;2.72;0.80;;;22.40;44.30;;;;;;5074656;28;20032;-70
2021/06/01 08:30:55;;;;;;;3.53;0.77;;;22.20;44.40;;;;;;5074085;28;20396;-70
2021/06/01 08:33:21;;;;;;;3.88;1.23;;;21.90;44.70;;;;;;5074281;28;20032;-70
2021/06/01 08:35:47;;;;;;;1.73;0.50;;;21.80;46.00;;;;;;5074141;28;20468;-70
2021/06/01 08:38:17;;;;;;;315.90;13.50;;;21.70;46.30;;;;;;5074392;28;20032;-70
2021/06/01 08:40:45;;;;;;;9.40;1.45;;;21.40;46.60;;;;;;5074117;28;20479;-70
2021/06/01 08:43:24;;;;;;;5.47;0.98;;;21.10;47.00;;;;;;5073916;28;20569;-70
2021/06/01 08:46:00;;;;;;;80.68;4.30;;;21.00;47.80;;;;;;5074000;28;20023;-69
2021/06/01 08:48:29;;;;;;;3.80;0.82;;;20.90;48.00;;;;;;5074298;28;20067;-70
2021/06/01 08:50:55;;;;;;;51.10;2.97;;;20.80;48.10;;;;;;5074045;28;20024;-69
2021/06/01 08:53:21;;;;;;;5.57;0.82;;;20.80;48.30;;;;;;5074087;28;20372;-70
2021/06/01 08:55:48;;;;;;;3.35;1.00;;;20.80;48.30;;;;;;5073878;28;20017;-69
2021/06/01 08:58:18;;;;;;;202.25;9.27;;;20.90;48.10;;;;;;5073836;28;20028;-69
2021/06/01 09:00:45;;;;;;;15.10;0.95;;;20.90;48.90;;;;;;5073974;28;20051;-71
2021/06/01 09:03:17;;;;;;;4.45;1.15;;;21.00;48.40;;;;;;5073384;28;20102;-70
2021/06/01 09:08:56;;;;;;;4.65;0.80;;;20.70;48.40;;;;;;5073570;28;20086;-71
2021/06/01 09:22:44;;;;;;;2.83;0.63;;;20.60;48.50;;;;;;5073471;28;20036;-71
2021/06/01 09:28:06;;;;;;;83.93;4.68;;;20.40;48.30;;;;;;5072940;28;20039;-71
2021/06/01 09:31:01;;;;;;;7.85;0.90;;;20.40;49.10;;;;;;5073193;28;20028;-71
2021/06/01 09:33:32;;;;;;;4.93;1.10;;;20.40;49.20;;;;;;5073546;28;20506;-71
2021/06/01 09:36:00;;;;;;;6.03;1.00;;;20.30;49.40;;;;;;5072781;28;20107;-71
2021/06/01 09:38:29;;;;;;;7.45;1.10;;;20.10;48.50;;;;;;5073340;28;20032;-71
2021/06/01 09:41:09;;;;;;;8.60;1.15;;;19.90;49.20;;;;;;5072957;28;20039;-70
2021/06/01 09:43:47;;;;;;;;;;;20.00;49.70;;;;;;5073614;28;20048;-71
2021/06/01 09:46:45;;;;;;;5.10;1.00;;;20.00;48.90;;;;;;5072851;28;19915;-70
2021/06/01 09:49:14;;;;;;;2.45;0.70;;;19.80;49.60;;;;;;5071330;28;20631;-70
2021/06/01 09:51:46;;;;;;;3.00;1.10;;;19.70;49.30;;;;;;5072818;28;20536;-71
2021/06/01 09:54:32;;;;;;;7.65;1.17;;;19.70;49.90;;;;;;5072578;28;20506;-70
2021/06/01 09:56:59;;;;;;;4.55;0.77;;;19.80;50.50;;;;;;5072841;28;20020;-70
2021/06/01 09:59:25;;;;;;;62.80;3.50;;;19.90;50.20;;;;;;5072579;28;20032;-71
2021/06/01 10:01:51;;;;;;;4.35;1.20;;;19.90;50.00;;;;;;5072987;28;20078;-71
2021/06/01 10:04:27;;;;;;;10.73;1.80;;;19.70;50.50;;;;;;5072135;28;20052;-70
2021/06/01 10:06:54;;;;;;;5.03;1.52;;;19.70;51.60;;;;;;5072444;28;20032;-71
2021/06/01 10:09:20;;;;;;;6.40;1.50;;;19.80;51.00;;;;;;5072325;28;20020;-71
2021/06/01 10:11:57;;;;;;;4.60;1.33;;;19.80;51.10;;;;;;5072774;28;20150;-71
2021/06/01 10:14:24;;;;;;;7.00;1.30;;;19.90;51.10;;;;;;5072299;28;20020;-71
2021/06/01 10:16:51;;;;;;;6.13;1.08;;;19.90;51.20;;;;;;5072457;28;20021;-71
2021/06/01 10:19:17;;;;;;;9.85;1.77;;;19.80;50.60;;;;;;5072317;28;20588;-71
2021/06/01 10:21:44;;;;;;;7.28;1.23;;;19.80;52.10;;;;;;5072547;28;20064;-71
2021/06/01 10:24:12;;;;;;;5.18;1.35;;;19.90;51.90;;;;;;5072052;28;20035;-71
2021/06/01 10:26:40;;;;;;;12.57;1.40;;;19.80;51.10;;;;;;5072166;28;20070;-71
2021/06/01 10:29:07;;;;;;;10.00;1.45;;;19.80;51.50;;;;;;5072016;28;20021;-71
2021/06/01 10:31:32;;;;;;;9.63;1.52;;;19.80;51.10;;;;;;5072420;28;20028;-71
2021/06/01 10:34:00;;;;;;;17.23;1.95;;;19.80;50.90;;;;;;5072465;28;20066;-71
2021/06/01 10:50:25;;;;;;;223.68;13.13;;;19.40;51.70;;;;;;5071799;28;20443;-71
2021/06/01 10:53:45;;;;;;;56.72;4.55;;;19.30;52.00;;;;;;5071899;28;20044;-71
2021/06/01 10:56:05;;;;;;;6.95;1.20;;;19.30;52.10;;;;;;5071359;28;20387;-71
2021/06/01 10:58:38;;;;;;;10.73;1.42;;;19.20;51.80;;;;;;5071908;28;20502;-71
2021/06/01 11:04:12;;;;;;;5.45;1.50;;;19.40;52.80;;;;;;5071545;28;20372;-71
2021/06/01 11:06:52;;;;;;;3.63;1.17;;;19.40;52.30;;;;;;5071768;28;20021;-70
2021/06/01 11:09:40;;;;;;;11.15;1.40;;;19.40;52.20;;;;;;5071557;28;20357;-71
2021/06/01 11:14:41;;;;;;;3.10;1.05;;;19.40;51.80;;;;;;5071625;28;20491;-71
2021/06/01 11:17:07;;;;;;;9.02;1.52;;;19.30;52.00;;;;;;5071518;28;20025;-71
2021/06/01 11:19:55;;;;;;;9.98;1.38;;;19.30;52.60;;;;;;5071598;28;20499;-71
2021/06/01 11:22:33;;;;;;;5.95;1.17;;;19.30;52.20;;;;;;5071843;28;20024;-70
2021/06/01 11:29:00;;;;;;;5.45;1.27;;;19.30;52.40;;;;;;5071478;28;20709;-71
2021/06/01 11:33:31;;;;;;;7.68;1.27;;;19.20;52.60;;;;;;5071858;28;20275;-71
2021/06/01 11:36:00;;;;;;;17.92;2.35;;;19.20;52.10;;;;;;5071228;28;20021;-70
2021/06/01 11:44:17;;;;;;;120.93;7.20;;;19.10;52.60;;;;;;5071247;28;20116;-70
2021/06/01 11:46:55;;;;;;;112.38;6.55;;;19.00;52.60;;;;;;5071472;28;20527;-71
2021/06/01 11:52:05;;;;;;;3.67;1.20;;;19.10;52.80;;;;;;5075265;28;20035;-71
2021/06/01 11:54:32;;;;;;;6.15;1.20;;;19.10;52.30;;;;;;5075046;28;20392;-71
2021/06/01 11:57:22;;;;;;;5.68;1.27;;;19.10;52.30;;;;;;5074922;28;20024;-71
2021/06/01 12:18:44;;;;;;;4.55;0.98;;;18.90;51.30;;;;;;5074721;28;20035;-70
2021/06/01 12:21:13;;;;;;;6.72;1.50;;;18.80;50.60;;;;;;5074689;28;20033;-71
2021/06/01 12:23:52;;;;;;;4.80;1.20;;;18.90;50.80;;;;;;5074669;28;20037;-71
2021/06/01 12:32:13;;;;;;;102.18;6.20;;;19.00;51.50;;;;;;5074536;28;20031;-71
2021/06/01 13:09:12;;;;;;;2.88;0.80;;;18.60;49.50;;;;;;5073875;28;20024;-71
2021/06/01 13:40:36;;;;;;;6.60;0.90;;;18.30;50.70;;;;;;5073115;28;20032;-71
2021/06/01 13:56:24;;;;;;;6.97;1.20;;;18.30;51.40;;;;;;5072423;28;20031;-71
2021/06/01 13:59:11;;;;;;;8.07;1.13;;;18.30;51.50;;;;;;5072783;28;20025;-71
2021/06/01 14:10:42;;;;;;;14.05;1.50;;;18.40;51.30;;;;;;5072771;28;20064;-71
2021/06/01 15:10:46;;;;;;;3.97;0.93;;;18.40;51.30;;;;;;5071679;28;20104;-71
2021/06/01 15:32:06;;;;;;;5.72;1.10;;;18.20;50.20;;;;;;5075859;28;20107;-71
2021/06/01 16:21:43;;;;;;;3.72;1.50;;;17.70;50.80;;;;;;5074518;28;20078;-71
2021/06/01 17:04:47;;;;;;;2.72;0.98;;;17.60;50.50;;;;;;5073644;28;20097;-71
2021/06/01 17:07:37;;;;;;;4.30;0.93;;;17.50;50.40;;;;;;5073771;28;20082;-71
2021/06/01 17:12:53;;;;;;;5.50;1.02;;;17.60;50.50;;;;;;5073828;28;20567;-71
2021/06/01 17:15:20;;;;;;;3.65;1.50;;;17.60;50.50;;;;;;5073472;28;20035;-71
2021/06/01 17:17:53;;;;;;;6.93;1.20;;;17.60;50.80;;;;;;5073843;28;20033;-71
2021/06/01 17:36:30;;;;;;;4.43;1.33;;;17.60;50.80;;;;;;5073144;28;20031;-71
2021/06/01 17:38:58;;;;;;;9.48;1.08;;;17.60;51.10;;;;;;5073065;28;20024;-71
2021/06/01 17:41:27;;;;;;;5.20;1.05;;;17.60;50.70;;;;;;5072834;28;20548;-71
2021/06/01 17:43:58;;;;;;;10.33;1.23;;;17.70;51.10;;;;;;5073059;28;20507;-71
2021/06/01 17:46:26;;;;;;;5.95;1.02;;;17.70;50.90;;;;;;5072687;28;20032;-71
2021/06/01 17:48:59;;;;;;;3.95;1.77;;;17.70;50.10;;;;;;5070630;28;20035;-71
2021/06/01 17:51:27;;;;;;;9.23;1.15;;;17.70;50.40;;;;;;5072811;28;20481;-71
2021/06/01 17:53:56;;;;;;;7.15;1.42;;;17.70;50.90;;;;;;5072765;28;20021;-71
2021/06/01 17:56:25;;;;;;;3.20;1.23;;;17.70;50.90;;;;;;5072586;28;20394;-72
2021/06/01 17:58:51;;;;;;;3.85;1.00;;;17.70;51.70;;;;;;5072575;28;20067;-71
2021/06/01 18:01:22;;;;;;;6.13;1.23;;;17.60;50.90;;;;;;5072601;28;20502;-71
2021/06/01 18:04:09;;;;;;;14.35;1.30;;;17.60;51.10;;;;;;5072369;28;20064;-71
2021/06/01 18:06:54;;;;;;;2.63;0.90;;;17.60;50.80;;;;;;5072453;28;20017;-71
2021/06/01 19:26:31;;;;;;;11.57;1.50;;;17.20;55.20;;;;;;5071837;28;20031;-71
2021/06/01 19:51:12;;;;;;;6.10;1.38;;;16.90;58.50;;;;;;5071631;28;20039;-71
2021/06/01 19:53:41;;;;;;;4.22;1.50;;;16.80;58.40;;;;;;5070016;28;20361;-71
2021/06/01 19:56:07;;;;;;;8.73;1.52;;;16.70;58.70;;;;;;5071268;28;20382;-71
2021/06/01 19:58:34;;;;;;;4.25;1.30;;;16.60;60.00;;;;;;5071131;28;20042;-71
2021/06/01 20:01:07;;;;;;;6.57;1.20;;;16.60;59.60;;;;;;5071142;28;20060;-71
2021/06/01 20:03:34;;;;;;;9.82;1.38;;;16.50;59.70;;;;;;5070882;28;20546;-71
2021/06/01 20:06:03;;;;;;;4.13;1.30;;;16.40;59.80;;;;;;5069935;28;20368;-71
2021/06/01 20:08:29;;;;;;;3.60;1.55;;;16.50;60.40;;;;;;5071077;28;20032;-71
2021/06/01 20:10:56;;;;;;;7.38;1.30;;;16.40;60.30;;;;;;5072302;28;20057;-71
2021/06/01 20:13:23;;;;;;;5.22;1.33;;;16.40;60.60;;;;;;5074832;28;20108;-71
2021/06/01 20:15:49;;;;;;;2.03;1.30;;;16.40;60.90;;;;;;5074538;28;20036;-71
2021/06/01 20:18:17;;;;;;;5.57;1.63;;;16.40;61.10;;;;;;5074860;28;20467;-71
2021/06/01 20:20:44;;;;;;;4.22;1.13;;;16.30;61.30;;;;;;5074459;28;20530;-71
2021/06/01 20:23:12;;;;;;;4.22;1.40;;;16.30;61.50;;;;;;5074938;28;20039;-71
2021/06/01 20:25:42;;;;;;;3.75;1.30;;;16.10;62.00;;;;;;5074642;28;20380;-71
2021/06/01 20:28:08;;;;;;;1.45;1.20;;;16.10;62.20;;;;;;5074600;28;20021;-71
2021/06/01 20:30:42;;;;;;;4.70;1.13;;;15.90;63.00;;;;;;5074674;28;20032;-71